Terminal Aerodrome Forecast
Issued by NWS

Home | Current Version | Previous Version | Text Only | Print | Product List | Glossary On
Versions: 1 2 3 4 5 6 7 8 9 10 11 12 13 14 15 16 17 18 19 20
997
FTUS44 KLZK 241720
TAFPBF
TAF
KPBF 241720Z 2418/2518 13008KT P6SM SCT050
     FM250000 VRB04KT P6SM FEW250
      TEMPO 2508/2512 4SM BR
     FM251500 12005KT P6SM SCT050=

USA.gov is the U.S. government's official web portal to all federal, state and local government web resources and services.